sensor_id;sensor_type;location;lat;lon;timestamp;P1;durP1;ratioP1;P2;durP2;ratioP2
61911;SDS011;49973;52.084;5.412;2022-10-15T00:01:34;112.87;;;27.70;;
61911;SDS011;49973;52.084;5.412;2022-10-15T00:04:05;75.33;;;25.90;;
61911;SDS011;49973;52.084;5.412;2022-10-15T00:06:33;64.07;;;25.70;;
61911;SDS011;49973;52.084;5.412;2022-10-15T00:09:02;64.60;;;25.13;;
61911;SDS011;49973;52.084;5.412;2022-10-15T00:11:30;93.23;;;27.20;;
61911;SDS011;49973;52.084;5.412;2022-10-15T00:13:59;61.73;;;25.20;;
61911;SDS011;49973;52.084;5.412;2022-10-15T00:16:28;64.90;;;25.50;;
61911;SDS011;49973;52.084;5.412;2022-10-15T00:18:57;57.77;;;23.57;;
61911;SDS011;49973;52.084;5.412;2022-10-15T00:21:27;67.57;;;24.80;;
61911;SDS011;49973;52.084;5.412;2022-10-15T00:23:56;73.93;;;24.90;;
61911;SDS011;49973;52.084;5.412;2022-10-15T00:26:26;70.40;;;24.63;;
61911;SDS011;49973;52.084;5.412;2022-10-15T00:28:56;63.73;;;24.77;;
61911;SDS011;49973;52.084;5.412;2022-10-15T00:31:26;63.13;;;26.00;;
61911;SDS011;49973;52.084;5.412;2022-10-15T00:33:56;54.47;;;25.67;;
61911;SDS011;49973;52.084;5.412;2022-10-15T00:36:28;63.77;;;25.17;;
61911;SDS011;49973;52.084;5.412;2022-10-15T00:38:58;69.73;;;24.83;;
61911;SDS011;49973;52.084;5.412;2022-10-15T00:41:28;61.87;;;24.07;;
61911;SDS011;49973;52.084;5.412;2022-10-15T00:43:59;68.63;;;26.13;;
61911;SDS011;49973;52.084;5.412;2022-10-15T00:46:29;68.23;;;24.00;;
61911;SDS011;49973;52.084;5.412;2022-10-15T00:49:00;83.60;;;25.43;;
61911;SDS011;49973;52.084;5.412;2022-10-15T00:51:34;66.37;;;24.17;;
61911;SDS011;49973;52.084;5.412;2022-10-15T00:54:09;62.47;;;25.20;;
61911;SDS011;49973;52.084;5.412;2022-10-15T00:56:39;62.23;;;24.73;;
61911;SDS011;49973;52.084;5.412;2022-10-15T00:59:10;77.60;;;26.40;;
61911;SDS011;49973;52.084;5.412;2022-10-15T01:01:40;63.63;;;23.57;;
61911;SDS011;49973;52.084;5.412;2022-10-15T01:04:11;58.30;;;23.40;;
61911;SDS011;49973;52.084;5.412;2022-10-15T01:06:41;67.43;;;27.27;;
61911;SDS011;49973;52.084;5.412;2022-10-15T01:09:10;57.57;;;26.33;;
61911;SDS011;49973;52.084;5.412;2022-10-15T01:11:39;69.27;;;25.60;;
61911;SDS011;49973;52.084;5.412;2022-10-15T01:14:22;77.67;;;26.37;;
61911;SDS011;49973;52.084;5.412;2022-10-15T01:16:58;66.90;;;26.27;;
61911;SDS011;49973;52.084;5.412;2022-10-15T01:19:39;57.23;;;25.33;;
61911;SDS011;49973;52.084;5.412;2022-10-15T01:22:28;61.83;;;25.33;;
61911;SDS011;49973;52.084;5.412;2022-10-15T01:25:14;74.47;;;26.90;;
61911;SDS011;49973;52.084;5.412;2022-10-15T01:27:55;67.17;;;26.83;;
61911;SDS011;49973;52.084;5.412;2022-10-15T01:30:31;67.90;;;25.33;;
61911;SDS011;49973;52.084;5.412;2022-10-15T01:33:18;63.57;;;25.27;;
61911;SDS011;49973;52.084;5.412;2022-10-15T01:35:53;64.07;;;26.40;;
61911;SDS011;49973;52.084;5.412;2022-10-15T01:38:35;56.10;;;25.33;;
61911;SDS011;49973;52.084;5.412;2022-10-15T01:41:13;65.30;;;26.63;;
61911;SDS011;49973;52.084;5.412;2022-10-15T01:43:50;63.80;;;25.17;;
61911;SDS011;49973;52.084;5.412;2022-10-15T01:46:35;76.90;;;26.13;;
61911;SDS011;49973;52.084;5.412;2022-10-15T01:49:11;64.27;;;25.90;;
61911;SDS011;49973;52.084;5.412;2022-10-15T01:51:42;79.80;;;26.13;;
61911;SDS011;49973;52.084;5.412;2022-10-15T01:54:13;78.73;;;29.07;;
61911;SDS011;49973;52.084;5.412;2022-10-15T01:56:45;67.83;;;26.43;;
61911;SDS011;49973;52.084;5.412;2022-10-15T01:59:19;70.67;;;25.87;;
61911;SDS011;49973;52.084;5.412;2022-10-15T02:01:52;67.20;;;26.67;;
61911;SDS011;49973;52.084;5.412;2022-10-15T02:04:24;106.03;;;28.90;;
61911;SDS011;49973;52.084;5.412;2022-10-15T02:06:56;100.20;;;29.67;;
61911;SDS011;49973;52.084;5.412;2022-10-15T02:09:32;67.57;;;26.77;;
61911;SDS011;49973;52.084;5.412;2022-10-15T02:12:17;72.70;;;27.23;;
61911;SDS011;49973;52.084;5.412;2022-10-15T02:14:58;78.50;;;29.57;;
61911;SDS011;49973;52.084;5.412;2022-10-15T02:17:33;89.57;;;30.17;;
61911;SDS011;49973;52.084;5.412;2022-10-15T02:20:06;93.07;;;30.77;;
61911;SDS011;49973;52.084;5.412;2022-10-15T02:22:42;97.93;;;30.97;;
61911;SDS011;49973;52.084;5.412;2022-10-15T02:25:17;92.77;;;30.30;;
61911;SDS011;49973;52.084;5.412;2022-10-15T02:27:49;87.63;;;31.67;;
61911;SDS011;49973;52.084;5.412;2022-10-15T02:30:19;106.80;;;33.17;;
61911;SDS011;49973;52.084;5.412;2022-10-15T02:32:51;83.17;;;28.87;;
61911;SDS011;49973;52.084;5.412;2022-10-15T02:35:22;85.87;;;30.07;;
61911;SDS011;49973;52.084;5.412;2022-10-15T02:37:53;94.57;;;29.50;;
61911;SDS011;49973;52.084;5.412;2022-10-15T02:40:26;96.57;;;29.40;;
61911;SDS011;49973;52.084;5.412;2022-10-15T02:42:58;93.30;;;29.47;;
61911;SDS011;49973;52.084;5.412;2022-10-15T02:45:27;81.60;;;29.47;;
61911;SDS011;49973;52.084;5.412;2022-10-15T02:47:56;77.17;;;28.57;;
61911;SDS011;49973;52.084;5.412;2022-10-15T02:50:25;90.83;;;29.63;;
61911;SDS011;49973;52.084;5.412;2022-10-15T02:52:53;75.23;;;27.37;;
61911;SDS011;49973;52.084;5.412;2022-10-15T02:55:22;130.10;;;30.77;;
61911;SDS011;49973;52.084;5.412;2022-10-15T02:57:52;86.70;;;29.57;;
61911;SDS011;49973;52.084;5.412;2022-10-15T03:00:21;83.17;;;28.67;;
61911;SDS011;49973;52.084;5.412;2022-10-15T03:02:50;109.47;;;28.70;;
61911;SDS011;49973;52.084;5.412;2022-10-15T03:05:20;80.53;;;28.73;;
61911;SDS011;49973;52.084;5.412;2022-10-15T03:07:48;95.97;;;28.37;;
61911;SDS011;49973;52.084;5.412;2022-10-15T03:10:18;75.07;;;27.57;;
61911;SDS011;49973;52.084;5.412;2022-10-15T03:12:46;76.93;;;26.70;;
61911;SDS011;49973;52.084;5.412;2022-10-15T03:15:15;93.03;;;27.67;;
61911;SDS011;49973;52.084;5.412;2022-10-15T03:17:45;84.13;;;26.63;;
61911;SDS011;49973;52.084;5.412;2022-10-15T03:20:16;93.40;;;28.87;;
61911;SDS011;49973;52.084;5.412;2022-10-15T03:22:46;80.77;;;28.83;;
61911;SDS011;49973;52.084;5.412;2022-10-15T03:25:15;113.93;;;30.10;;
61911;SDS011;49973;52.084;5.412;2022-10-15T03:27:43;81.30;;;26.33;;
61911;SDS011;49973;52.084;5.412;2022-10-15T03:30:23;89.50;;;28.30;;
61911;SDS011;49973;52.084;5.412;2022-10-15T03:32:51;79.27;;;27.57;;
61911;SDS011;49973;52.084;5.412;2022-10-15T03:35:20;98.50;;;28.97;;
61911;SDS011;49973;52.084;5.412;2022-10-15T03:37:50;97.17;;;29.37;;
61911;SDS011;49973;52.084;5.412;2022-10-15T03:40:19;108.07;;;30.70;;
61911;SDS011;49973;52.084;5.412;2022-10-15T03:42:53;97.17;;;29.37;;
61911;SDS011;49973;52.084;5.412;2022-10-15T03:45:23;102.93;;;29.43;;
61911;SDS011;49973;52.084;5.412;2022-10-15T03:48:09;101.03;;;30.40;;
61911;SDS011;49973;52.084;5.412;2022-10-15T03:50:38;106.60;;;30.43;;
61911;SDS011;49973;52.084;5.412;2022-10-15T03:53:08;88.30;;;27.27;;
61911;SDS011;49973;52.084;5.412;2022-10-15T03:55:36;95.67;;;29.37;;
61911;SDS011;49973;52.084;5.412;2022-10-15T03:58:05;90.23;;;28.57;;
61911;SDS011;49973;52.084;5.412;2022-10-15T04:00:39;80.87;;;26.70;;
61911;SDS011;49973;52.084;5.412;2022-10-15T04:03:08;101.57;;;26.80;;
61911;SDS011;49973;52.084;5.412;2022-10-15T04:05:37;87.53;;;26.50;;
61911;SDS011;49973;52.084;5.412;2022-10-15T04:08:09;88.17;;;27.17;;
61911;SDS011;49973;52.084;5.412;2022-10-15T04:10:39;63.90;;;25.10;;
61911;SDS011;49973;52.084;5.412;2022-10-15T04:13:08;135.33;;;30.40;;
61911;SDS011;49973;52.084;5.412;2022-10-15T04:15:39;79.30;;;26.33;;
61911;SDS011;49973;52.084;5.412;2022-10-15T04:18:10;115.60;;;31.93;;
61911;SDS011;49973;52.084;5.412;2022-10-15T04:20:39;158.00;;;32.03;;
61911;SDS011;49973;52.084;5.412;2022-10-15T04:23:20;101.10;;;28.90;;
61911;SDS011;49973;52.084;5.412;2022-10-15T04:26:15;103.70;;;30.20;;
61911;SDS011;49973;52.084;5.412;2022-10-15T04:28:43;105.33;;;31.37;;
61911;SDS011;49973;52.084;5.412;2022-10-15T04:31:14;123.73;;;33.50;;
61911;SDS011;49973;52.084;5.412;2022-10-15T04:33:43;98.20;;;30.43;;
61911;SDS011;49973;52.084;5.412;2022-10-15T04:36:12;114.53;;;29.90;;
61911;SDS011;49973;52.084;5.412;2022-10-15T04:38:50;86.77;;;29.33;;
61911;SDS011;49973;52.084;5.412;2022-10-15T04:41:26;101.17;;;31.20;;
61911;SDS011;49973;52.084;5.412;2022-10-15T04:44:03;109.17;;;32.23;;
61911;SDS011;49973;52.084;5.412;2022-10-15T04:46:32;97.33;;;30.80;;
61911;SDS011;49973;52.084;5.412;2022-10-15T04:49:09;114.87;;;33.53;;
61911;SDS011;49973;52.084;5.412;2022-10-15T04:51:39;132.67;;;35.40;;
61911;SDS011;49973;52.084;5.412;2022-10-15T04:54:15;126.00;;;35.13;;
61911;SDS011;49973;52.084;5.412;2022-10-15T04:57:03;148.60;;;38.43;;
61911;SDS011;49973;52.084;5.412;2022-10-15T04:59:34;123.03;;;37.80;;
61911;SDS011;49973;52.084;5.412;2022-10-15T05:02:25;138.87;;;36.67;;
61911;SDS011;49973;52.084;5.412;2022-10-15T05:05:07;121.27;;;35.07;;
61911;SDS011;49973;52.084;5.412;2022-10-15T05:07:46;122.20;;;35.17;;
61911;SDS011;49973;52.084;5.412;2022-10-15T05:10:16;113.60;;;33.27;;
61911;SDS011;49973;52.084;5.412;2022-10-15T05:12:45;165.37;;;38.00;;
61911;SDS011;49973;52.084;5.412;2022-10-15T05:15:26;110.20;;;36.47;;
61911;SDS011;49973;52.084;5.412;2022-10-15T05:17:55;112.80;;;36.13;;
61911;SDS011;49973;52.084;5.412;2022-10-15T05:20:31;119.43;;;37.90;;
61911;SDS011;49973;52.084;5.412;2022-10-15T05:22:59;131.93;;;37.97;;
61911;SDS011;49973;52.084;5.412;2022-10-15T05:25:33;134.20;;;36.87;;
61911;SDS011;49973;52.084;5.412;2022-10-15T05:28:03;123.27;;;37.60;;
61911;SDS011;49973;52.084;5.412;2022-10-15T05:30:33;130.70;;;36.97;;
61911;SDS011;49973;52.084;5.412;2022-10-15T05:33:04;140.03;;;37.77;;
61911;SDS011;49973;52.084;5.412;2022-10-15T05:35:33;138.87;;;37.97;;
61911;SDS011;49973;52.084;5.412;2022-10-15T05:38:02;164.80;;;40.33;;
61911;SDS011;49973;52.084;5.412;2022-10-15T05:40:31;199.63;;;45.07;;
61911;SDS011;49973;52.084;5.412;2022-10-15T05:43:16;179.07;;;40.87;;
61911;SDS011;49973;52.084;5.412;2022-10-15T05:45:47;169.53;;;40.30;;
61911;SDS011;49973;52.084;5.412;2022-10-15T05:48:17;184.03;;;43.63;;
61911;SDS011;49973;52.084;5.412;2022-10-15T05:50:46;176.33;;;40.60;;
61911;SDS011;49973;52.084;5.412;2022-10-15T05:53:21;200.03;;;43.67;;
61911;SDS011;49973;52.084;5.412;2022-10-15T05:55:55;222.83;;;43.77;;
61911;SDS011;49973;52.084;5.412;2022-10-15T05:58:28;169.87;;;41.03;;
61911;SDS011;49973;52.084;5.412;2022-10-15T06:01:03;183.87;;;41.77;;
61911;SDS011;49973;52.084;5.412;2022-10-15T06:03:37;186.47;;;39.83;;
61911;SDS011;49973;52.084;5.412;2022-10-15T06:06:12;170.53;;;39.23;;
61911;SDS011;49973;52.084;5.412;2022-10-15T06:08:41;149.10;;;36.57;;
61911;SDS011;49973;52.084;5.412;2022-10-15T06:11:12;167.60;;;36.67;;
61911;SDS011;49973;52.084;5.412;2022-10-15T06:13:41;150.03;;;34.60;;
61911;SDS011;49973;52.084;5.412;2022-10-15T06:16:11;119.10;;;32.70;;
61911;SDS011;49973;52.084;5.412;2022-10-15T06:18:46;136.67;;;34.20;;
61911;SDS011;49973;52.084;5.412;2022-10-15T06:21:15;152.17;;;35.00;;
61911;SDS011;49973;52.084;5.412;2022-10-15T06:23:43;128.70;;;33.90;;
61911;SDS011;49973;52.084;5.412;2022-10-15T06:26:13;140.10;;;35.17;;
61911;SDS011;49973;52.084;5.412;2022-10-15T06:28:46;156.37;;;35.33;;
61911;SDS011;49973;52.084;5.412;2022-10-15T06:31:15;130.50;;;33.77;;
61911;SDS011;49973;52.084;5.412;2022-10-15T06:33:43;134.53;;;34.60;;
61911;SDS011;49973;52.084;5.412;2022-10-15T06:36:12;146.33;;;31.80;;
61911;SDS011;49973;52.084;5.412;2022-10-15T06:38:41;134.93;;;31.47;;
61911;SDS011;49973;52.084;5.412;2022-10-15T06:41:10;129.43;;;29.97;;
61911;SDS011;49973;52.084;5.412;2022-10-15T06:43:40;118.60;;;30.83;;
61911;SDS011;49973;52.084;5.412;2022-10-15T06:46:08;140.40;;;33.27;;
61911;SDS011;49973;52.084;5.412;2022-10-15T06:48:37;127.77;;;31.07;;
61911;SDS011;49973;52.084;5.412;2022-10-15T06:51:05;114.70;;;30.13;;
61911;SDS011;49973;52.084;5.412;2022-10-15T06:53:34;102.53;;;29.90;;
61911;SDS011;49973;52.084;5.412;2022-10-15T06:56:06;109.07;;;28.97;;
61911;SDS011;49973;52.084;5.412;2022-10-15T06:58:36;102.53;;;28.93;;
61911;SDS011;49973;52.084;5.412;2022-10-15T07:01:09;90.37;;;26.60;;
61911;SDS011;49973;52.084;5.412;2022-10-15T07:03:38;90.00;;;27.63;;
61911;SDS011;49973;52.084;5.412;2022-10-15T07:06:07;91.87;;;26.97;;
61911;SDS011;49973;52.084;5.412;2022-10-15T07:08:36;76.17;;;24.57;;
61911;SDS011;49973;52.084;5.412;2022-10-15T07:11:05;98.10;;;27.17;;
61911;SDS011;49973;52.084;5.412;2022-10-15T07:13:34;75.33;;;23.50;;
61911;SDS011;49973;52.084;5.412;2022-10-15T07:16:06;77.83;;;24.57;;
61911;SDS011;49973;52.084;5.412;2022-10-15T07:18:36;71.07;;;22.27;;
61911;SDS011;49973;52.084;5.412;2022-10-15T07:21:06;63.07;;;22.97;;
61911;SDS011;49973;52.084;5.412;2022-10-15T07:23:36;64.97;;;20.60;;
61911;SDS011;49973;52.084;5.412;2022-10-15T07:26:05;59.10;;;20.47;;
61911;SDS011;49973;52.084;5.412;2022-10-15T07:28:33;61.33;;;20.90;;
61911;SDS011;49973;52.084;5.412;2022-10-15T07:31:03;56.83;;;20.53;;
61911;SDS011;49973;52.084;5.412;2022-10-15T07:33:34;50.20;;;19.40;;
61911;SDS011;49973;52.084;5.412;2022-10-15T07:36:03;47.90;;;18.63;;
61911;SDS011;49973;52.084;5.412;2022-10-15T07:38:33;57.77;;;19.97;;
61911;SDS011;49973;52.084;5.412;2022-10-15T07:41:03;44.60;;;18.20;;
61911;SDS011;49973;52.084;5.412;2022-10-15T07:43:41;43.87;;;17.40;;
61911;SDS011;49973;52.084;5.412;2022-10-15T07:46:11;42.23;;;17.27;;
61911;SDS011;49973;52.084;5.412;2022-10-15T07:48:39;43.13;;;16.60;;
61911;SDS011;49973;52.084;5.412;2022-10-15T07:51:09;43.67;;;16.80;;
61911;SDS011;49973;52.084;5.412;2022-10-15T07:53:38;32.40;;;16.03;;
61911;SDS011;49973;52.084;5.412;2022-10-15T07:56:07;38.73;;;15.53;;
61911;SDS011;49973;52.084;5.412;2022-10-15T07:58:38;40.77;;;16.00;;
61911;SDS011;49973;52.084;5.412;2022-10-15T08:01:07;35.10;;;14.47;;
61911;SDS011;49973;52.084;5.412;2022-10-15T08:03:38;33.43;;;15.13;;
61911;SDS011;49973;52.084;5.412;2022-10-15T08:06:07;27.73;;;14.37;;
61911;SDS011;49973;52.084;5.412;2022-10-15T08:08:35;37.20;;;15.53;;
61911;SDS011;49973;52.084;5.412;2022-10-15T08:11:05;28.93;;;13.80;;
61911;SDS011;49973;52.084;5.412;2022-10-15T08:13:34;34.23;;;14.37;;
61911;SDS011;49973;52.084;5.412;2022-10-15T08:16:04;26.33;;;13.77;;
61911;SDS011;49973;52.084;5.412;2022-10-15T08:18:33;25.87;;;12.63;;
61911;SDS011;49973;52.084;5.412;2022-10-15T08:21:04;27.97;;;13.27;;
61911;SDS011;49973;52.084;5.412;2022-10-15T08:23:34;25.70;;;12.97;;
61911;SDS011;49973;52.084;5.412;2022-10-15T08:26:03;25.33;;;12.33;;
61911;SDS011;49973;52.084;5.412;2022-10-15T08:28:32;26.37;;;12.53;;
61911;SDS011;49973;52.084;5.412;2022-10-15T08:31:02;27.07;;;11.40;;
61911;SDS011;49973;52.084;5.412;2022-10-15T08:33:32;23.80;;;12.43;;
61911;SDS011;49973;52.084;5.412;2022-10-15T08:36:01;27.43;;;12.23;;
61911;SDS011;49973;52.084;5.412;2022-10-15T08:38:33;25.60;;;13.23;;
61911;SDS011;49973;52.084;5.412;2022-10-15T08:41:03;24.33;;;12.43;;
61911;SDS011;49973;52.084;5.412;2022-10-15T08:43:40;28.00;;;13.20;;
61911;SDS011;49973;52.084;5.412;2022-10-15T08:46:15;23.07;;;12.13;;
61911;SDS011;49973;52.084;5.412;2022-10-15T08:48:47;26.23;;;14.37;;
61911;SDS011;49973;52.084;5.412;2022-10-15T08:51:21;26.20;;;11.83;;
61911;SDS011;49973;52.084;5.412;2022-10-15T08:53:52;25.27;;;12.33;;
61911;SDS011;49973;52.084;5.412;2022-10-15T08:56:23;22.77;;;11.93;;
61911;SDS011;49973;52.084;5.412;2022-10-15T08:58:58;20.73;;;11.13;;
61911;SDS011;49973;52.084;5.412;2022-10-15T09:01:33;23.63;;;11.70;;
61911;SDS011;49973;52.084;5.412;2022-10-15T09:04:13;22.40;;;11.17;;
61911;SDS011;49973;52.084;5.412;2022-10-15T09:06:53;20.90;;;10.80;;
61911;SDS011;49973;52.084;5.412;2022-10-15T09:09:30;20.53;;;10.90;;
61911;SDS011;49973;52.084;5.412;2022-10-15T09:12:08;18.93;;;11.40;;
61911;SDS011;49973;52.084;5.412;2022-10-15T09:14:45;20.53;;;11.03;;
61911;SDS011;49973;52.084;5.412;2022-10-15T09:17:17;20.47;;;10.73;;
61911;SDS011;49973;52.084;5.412;2022-10-15T09:19:49;22.07;;;11.17;;
61911;SDS011;49973;52.084;5.412;2022-10-15T09:22:22;21.67;;;11.03;;
61911;SDS011;49973;52.084;5.412;2022-10-15T09:24:52;18.63;;;11.07;;
61911;SDS011;49973;52.084;5.412;2022-10-15T09:27:23;21.27;;;11.87;;
61911;SDS011;49973;52.084;5.412;2022-10-15T09:30:01;22.13;;;11.43;;
61911;SDS011;49973;52.084;5.412;2022-10-15T09:32:33;21.40;;;11.37;;
61911;SDS011;49973;52.084;5.412;2022-10-15T09:35:09;25.70;;;12.67;;
61911;SDS011;49973;52.084;5.412;2022-10-15T09:37:47;22.23;;;12.03;;
61911;SDS011;49973;52.084;5.412;2022-10-15T09:40:24;22.13;;;12.10;;
61911;SDS011;49973;52.084;5.412;2022-10-15T09:42:56;20.10;;;11.20;;
61911;SDS011;49973;52.084;5.412;2022-10-15T09:45:26;16.33;;;10.80;;
61911;SDS011;49973;52.084;5.412;2022-10-15T09:47:56;21.63;;;11.83;;
61911;SDS011;49973;52.084;5.412;2022-10-15T09:50:27;19.50;;;10.60;;
61911;SDS011;49973;52.084;5.412;2022-10-15T09:53:06;21.03;;;10.47;;
61911;SDS011;49973;52.084;5.412;2022-10-15T09:55:44;20.00;;;9.50;;
61911;SDS011;49973;52.084;5.412;2022-10-15T09:58:17;15.87;;;10.53;;
61911;SDS011;49973;52.084;5.412;2022-10-15T10:00:53;19.63;;;11.13;;
61911;SDS011;49973;52.084;5.412;2022-10-15T10:03:24;22.80;;;10.43;;
61911;SDS011;49973;52.084;5.412;2022-10-15T10:05:58;13.57;;;8.33;;
61911;SDS011;49973;52.084;5.412;2022-10-15T10:08:38;15.20;;;7.67;;
61911;SDS011;49973;52.084;5.412;2022-10-15T10:11:14;14.40;;;8.50;;
61911;SDS011;49973;52.084;5.412;2022-10-15T10:13:44;15.77;;;8.13;;
61911;SDS011;49973;52.084;5.412;2022-10-15T10:16:18;13.93;;;8.40;;
61911;SDS011;49973;52.084;5.412;2022-10-15T10:19:00;15.57;;;8.03;;
61911;SDS011;49973;52.084;5.412;2022-10-15T10:21:31;13.20;;;7.13;;
61911;SDS011;49973;52.084;5.412;2022-10-15T10:26:49;14.30;;;8.37;;
61911;SDS011;49973;52.084;5.412;2022-10-15T10:29:18;15.40;;;8.00;;
61911;SDS011;49973;52.084;5.412;2022-10-15T10:32:08;15.50;;;8.07;;
61911;SDS011;49973;52.084;5.412;2022-10-15T10:34:37;17.50;;;7.47;;
61911;SDS011;49973;52.084;5.412;2022-10-15T10:37:14;16.23;;;8.57;;
61911;SDS011;49973;52.084;5.412;2022-10-15T10:39:44;12.77;;;7.30;;
61911;SDS011;49973;52.084;5.412;2022-10-15T10:42:25;18.73;;;8.23;;
61911;SDS011;49973;52.084;5.412;2022-10-15T10:45:14;15.67;;;7.47;;
61911;SDS011;49973;52.084;5.412;2022-10-15T10:47:45;13.37;;;7.00;;
61911;SDS011;49973;52.084;5.412;2022-10-15T10:50:27;14.17;;;7.77;;
61911;SDS011;49973;52.084;5.412;2022-10-15T10:53:03;12.57;;;6.87;;
61911;SDS011;49973;52.084;5.412;2022-10-15T10:55:46;16.10;;;6.80;;
61911;SDS011;49973;52.084;5.412;2022-10-15T10:58:17;18.80;;;7.30;;
61911;SDS011;49973;52.084;5.412;2022-10-15T11:00:52;13.80;;;6.77;;
61911;SDS011;49973;52.084;5.412;2022-10-15T11:03:26;14.27;;;6.73;;
61911;SDS011;49973;52.084;5.412;2022-10-15T11:06:00;18.80;;;7.20;;
61911;SDS011;49973;52.084;5.412;2022-10-15T11:08:54;14.33;;;7.27;;
61911;SDS011;49973;52.084;5.412;2022-10-15T11:11:40;15.50;;;7.40;;
61911;SDS011;49973;52.084;5.412;2022-10-15T11:14:20;15.63;;;6.80;;
61911;SDS011;49973;52.084;5.412;2022-10-15T11:16:59;15.93;;;6.63;;
61911;SDS011;49973;52.084;5.412;2022-10-15T11:19:37;18.33;;;7.23;;
61911;SDS011;49973;52.084;5.412;2022-10-15T11:22:34;12.07;;;5.70;;
61911;SDS011;49973;52.084;5.412;2022-10-15T11:25:14;14.33;;;6.10;;
61911;SDS011;49973;52.084;5.412;2022-10-15T11:27:54;12.23;;;6.40;;
61911;SDS011;49973;52.084;5.412;2022-10-15T11:30:39;12.07;;;6.43;;
61911;SDS011;49973;52.084;5.412;2022-10-15T11:33:17;13.37;;;6.47;;
61911;SDS011;49973;52.084;5.412;2022-10-15T11:35:59;14.37;;;6.53;;
61911;SDS011;49973;52.084;5.412;2022-10-15T11:38:44;11.47;;;6.00;;
61911;SDS011;49973;52.084;5.412;2022-10-15T11:41:24;10.57;;;6.17;;
61911;SDS011;49973;52.084;5.412;2022-10-15T11:44:08;10.80;;;5.77;;
61911;SDS011;49973;52.084;5.412;2022-10-15T11:46:52;10.87;;;6.20;;
61911;SDS011;49973;52.084;5.412;2022-10-15T11:49:40;11.47;;;6.90;;
61911;SDS011;49973;52.084;5.412;2022-10-15T11:52:22;8.20;;;5.30;;
61911;SDS011;49973;52.084;5.412;2022-10-15T11:55:07;15.83;;;6.47;;
61911;SDS011;49973;52.084;5.412;2022-10-15T11:57:38;10.57;;;5.00;;
61911;SDS011;49973;52.084;5.412;2022-10-15T12:00:14;13.57;;;5.30;;
61911;SDS011;49973;52.084;5.412;2022-10-15T12:02:59;13.57;;;5.57;;
61911;SDS011;49973;52.084;5.412;2022-10-15T12:05:32;7.93;;;4.70;;
61911;SDS011;49973;52.084;5.412;2022-10-15T12:08:04;14.93;;;5.40;;
61911;SDS011;49973;52.084;5.412;2022-10-15T12:10:50;15.70;;;4.40;;
61911;SDS011;49973;52.084;5.412;2022-10-15T12:13:28;8.57;;;5.30;;
61911;SDS011;49973;52.084;5.412;2022-10-15T12:16:11;10.40;;;4.73;;
61911;SDS011;49973;52.084;5.412;2022-10-15T12:18:48;10.30;;;5.07;;
61911;SDS011;49973;52.084;5.412;2022-10-15T12:21:32;9.93;;;5.33;;
61911;SDS011;49973;52.084;5.412;2022-10-15T12:24:04;8.70;;;4.40;;
61911;SDS011;49973;52.084;5.412;2022-10-15T12:26:53;9.37;;;4.90;;
61911;SDS011;49973;52.084;5.412;2022-10-15T12:29:23;9.93;;;5.07;;
61911;SDS011;49973;52.084;5.412;2022-10-15T12:31:57;11.07;;;4.97;;
61911;SDS011;49973;52.084;5.412;2022-10-15T12:34:27;9.63;;;5.73;;
61911;SDS011;49973;52.084;5.412;2022-10-15T12:36:58;6.63;;;4.97;;
61911;SDS011;49973;52.084;5.412;2022-10-15T12:39:28;9.53;;;5.40;;
61911;SDS011;49973;52.084;5.412;2022-10-15T12:42:19;8.57;;;5.57;;
61911;SDS011;49973;52.084;5.412;2022-10-15T12:44:52;8.77;;;4.67;;
61911;SDS011;49973;52.084;5.412;2022-10-15T12:50:16;8.13;;;5.90;;
61911;SDS011;49973;52.084;5.412;2022-10-15T12:52:54;7.23;;;5.33;;
61911;SDS011;49973;52.084;5.412;2022-10-15T12:55:26;7.80;;;6.03;;
61911;SDS011;49973;52.084;5.412;2022-10-15T12:57:57;7.93;;;5.60;;
61911;SDS011;49973;52.084;5.412;2022-10-15T13:00:32;10.10;;;5.70;;
61911;SDS011;49973;52.084;5.412;2022-10-15T13:03:13;10.73;;;6.20;;
61911;SDS011;49973;52.084;5.412;2022-10-15T13:05:48;9.43;;;6.10;;
61911;SDS011;49973;52.084;5.412;2022-10-15T13:08:32;7.97;;;6.07;;
61911;SDS011;49973;52.084;5.412;2022-10-15T13:11:01;7.40;;;5.30;;
61911;SDS011;49973;52.084;5.412;2022-10-15T13:13:30;9.93;;;5.60;;
61911;SDS011;49973;52.084;5.412;2022-10-15T13:16:01;9.13;;;5.60;;
61911;SDS011;49973;52.084;5.412;2022-10-15T13:18:36;7.03;;;5.40;;
61911;SDS011;49973;52.084;5.412;2022-10-15T13:21:05;6.17;;;5.07;;
61911;SDS011;49973;52.084;5.412;2022-10-15T13:23:43;10.43;;;5.60;;
61911;SDS011;49973;52.084;5.412;2022-10-15T13:26:16;8.47;;;5.63;;
61911;SDS011;49973;52.084;5.412;2022-10-15T13:28:47;10.23;;;5.47;;
61911;SDS011;49973;52.084;5.412;2022-10-15T13:31:20;8.17;;;5.57;;
61911;SDS011;49973;52.084;5.412;2022-10-15T13:33:58;9.00;;;5.07;;
61911;SDS011;49973;52.084;5.412;2022-10-15T13:36:33;12.47;;;4.93;;
61911;SDS011;49973;52.084;5.412;2022-10-15T13:39:03;14.23;;;5.43;;
61911;SDS011;49973;52.084;5.412;2022-10-15T13:41:35;7.63;;;4.83;;
61911;SDS011;49973;52.084;5.412;2022-10-15T13:44:16;6.17;;;4.60;;
61911;SDS011;49973;52.084;5.412;2022-10-15T13:46:47;11.37;;;5.33;;
61911;SDS011;49973;52.084;5.412;2022-10-15T13:49:17;6.37;;;4.73;;
61911;SDS011;49973;52.084;5.412;2022-10-15T13:51:49;6.67;;;4.80;;
61911;SDS011;49973;52.084;5.412;2022-10-15T13:54:20;7.87;;;4.87;;
61911;SDS011;49973;52.084;5.412;2022-10-15T13:56:51;6.00;;;4.17;;
61911;SDS011;49973;52.084;5.412;2022-10-15T13:59:23;5.63;;;3.90;;
61911;SDS011;49973;52.084;5.412;2022-10-15T14:01:53;5.77;;;4.13;;
61911;SDS011;49973;52.084;5.412;2022-10-15T14:04:28;7.27;;;4.87;;
61911;SDS011;49973;52.084;5.412;2022-10-15T14:06:59;6.80;;;4.83;;
61911;SDS011;49973;52.084;5.412;2022-10-15T14:09:30;7.87;;;4.70;;
61911;SDS011;49973;52.084;5.412;2022-10-15T14:12:00;6.97;;;4.30;;
61911;SDS011;49973;52.084;5.412;2022-10-15T14:14:32;6.60;;;4.23;;
61911;SDS011;49973;52.084;5.412;2022-10-15T14:17:03;7.03;;;4.57;;
61911;SDS011;49973;52.084;5.412;2022-10-15T14:19:36;5.87;;;4.20;;
61911;SDS011;49973;52.084;5.412;2022-10-15T14:22:06;9.40;;;4.57;;
61911;SDS011;49973;52.084;5.412;2022-10-15T14:24:42;9.53;;;4.00;;
61911;SDS011;49973;52.084;5.412;2022-10-15T14:27:13;5.23;;;3.70;;
61911;SDS011;49973;52.084;5.412;2022-10-15T14:29:45;9.57;;;3.73;;
61911;SDS011;49973;52.084;5.412;2022-10-15T14:32:19;4.20;;;3.03;;
61911;SDS011;49973;52.084;5.412;2022-10-15T14:34:54;5.27;;;2.80;;
61911;SDS011;49973;52.084;5.412;2022-10-15T14:37:27;4.50;;;2.57;;
61911;SDS011;49973;52.084;5.412;2022-10-15T14:40:08;4.70;;;2.90;;
61911;SDS011;49973;52.084;5.412;2022-10-15T14:42:47;3.17;;;2.33;;
61911;SDS011;49973;52.084;5.412;2022-10-15T14:45:28;4.17;;;2.53;;
61911;SDS011;49973;52.084;5.412;2022-10-15T14:47:57;4.10;;;2.30;;
61911;SDS011;49973;52.084;5.412;2022-10-15T14:50:30;2.90;;;2.00;;
61911;SDS011;49973;52.084;5.412;2022-10-15T14:53:04;2.03;;;1.70;;
61911;SDS011;49973;52.084;5.412;2022-10-15T14:55:36;3.57;;;1.70;;
61911;SDS011;49973;52.084;5.412;2022-10-15T14:58:09;4.53;;;2.03;;
61911;SDS011;49973;52.084;5.412;2022-10-15T15:00:43;3.80;;;1.83;;
61911;SDS011;49973;52.084;5.412;2022-10-15T15:03:16;3.27;;;1.67;;
61911;SDS011;49973;52.084;5.412;2022-10-15T15:05:47;3.83;;;1.67;;
61911;SDS011;49973;52.084;5.412;2022-10-15T15:08:18;3.53;;;1.60;;